Latest Weather Observations for Weipa

IDQ60801

Issued at 10:52 pm EST Monday 26 September 2022 (issued every 10 minutes, with the page automatically refreshed every 10 minutes)

About weather observations | Map of weather stations | Latest weather observations for QLD | Other Formats
Station Details ID: 027045 Name: WEIPA AERO Lat: -12.68 Lon: 141.92 Height: 17.96 m
Data from the previous 72 hours. | See also: Recent months at Weipa
Date/Time
EST
Temp
°C
App
Temp
°C
Dew
Point
°C
Rel
Hum
%
Delta-T
°C
Wind Press
QNH
hPa
Press
MSL
hPa
Rain since
9am
mm
Dir  Spd
km/h
Gust
km/h
Spd
kts
Gust
kts
26/10:30pm 27.2 29.7 22.4 75 3.2 E 13 19 7 10 1010.1 1010.0 0.0
26/10:00pm 27.6 30.0 22.3 73 3.6 E 13 15 7 8 1010.0 1009.9 0.0
26/09:30pm 28.0 30.7 22.2 70 3.9 E 11 13 6 7 1009.8 1009.7 0.0
26/09:00pm 28.5 30.5 22.3 69 4.2 E 15 20 8 11 1009.5 1009.4 0.0
26/08:30pm 29.0 30.2 22.2 66 4.6 E 19 26 10 14 1009.3 1009.2 0.0
26/08:00pm 29.4 30.4 22.1 65 4.9 E 20 28 11 15 1008.6 1008.5 0.0
26/07:30pm 29.9 31.1 22.1 63 5.3 E 19 26 10 14 1008.4 1008.3 0.0
26/07:00pm 30.5 31.4 21.9 60 5.8 E 20 26 11 14 1007.7 1007.6 0.0
26/06:30pm 31.3 31.4 21.8 57 6.4 E 24 33 13 18 1007.1 1007.0 0.0
26/06:00pm 32.3 32.2 21.5 53 7.3 E 24 33 13 18 1006.6 1006.5 0.0
26/05:30pm 32.9 32.8 21.4 50 7.8 E 24 32 13 17 1006.2 1006.1 0.0
26/05:00pm 33.5 33.1 21.6 49 8.1 E 26 35 14 19 1006.0 1005.9 0.0
26/04:30pm 34.6 34.8 22.0 48 8.6 ESE 24 35 13 19 1006.0 1005.9 0.0
26/04:00pm 35.4 34.8 22.0 45 9.2 ESE 28 35 15 19 1006.0 1005.9 0.0
26/03:30pm 35.2 34.7 21.5 45 9.3 E 26 39 14 21 1006.1 1006.0 0.0
26/03:00pm 34.3 33.4 21.4 47 8.8 ESE 28 37 15 20 1006.3 1006.2 0.0
26/02:30pm 34.4 34.1 21.1 45 9.0 E 24 33 13 18 1006.8 1006.7 0.0
26/02:00pm 34.8 34.7 21.5 46 9.1 E 24 39 13 21 1007.2 1007.1 0.0
26/01:30pm 34.5 34.0 22.2 48 8.4 E 28 39 15 21 1007.8 1007.7 0.0
26/01:00pm 33.6 33.1 22.1 51 7.9 ESE 28 39 15 21 1008.6 1008.5 0.0
26/12:30pm 33.4 32.9 21.5 49 8.1 E 26 35 14 19 1009.2 1009.1 0.0
26/12:00pm 33.3 32.8 22.1 52 7.7 E 28 41 15 22 1009.6 1009.5 0.0
26/11:30am 32.1 32.4 22.2 56 6.7 E 24 32 13 17 1010.1 1010.0 0.0
26/11:00am 32.1 33.7 22.8 58 6.4 E 19 32 10 17 1010.4 1010.3 0.0
26/10:30am 31.3 30.9 22.3 58 6.1 ESE 28 39 15 21 1010.6 1010.5 0.0
26/10:00am 30.3 31.6 22.7 64 5.2 E 20 32 11 17 1010.8 1010.7 0.0
26/09:30am 29.4 29.4 22.4 66 4.8 ESE 26 39 14 21 1011.0 1010.9 0.0
26/09:00am 29.4 30.5 22.4 66 4.8 ESE 20 30 11 16 1011.1 1011.0 0.0
26/08:30am 27.9 28.7 21.4 67 4.3 ESE 19 26 10 14 1011.1 1011.0 0.0
26/08:00am 26.3 28.3 21.5 75 3.2 SE 13 20 7 11 1010.7 1010.6 0.0
26/07:30am 25.0 27.3 21.3 80 2.4 SE 11 15 6 8 1010.3 1010.2 0.0
26/07:00am 24.0 26.5 21.1 84 1.9 SE 9 13 5 7 1010.1 1010.0 0.0
26/06:30am 23.3 26.3 20.8 86 1.6 SE 6 7 3 4 1009.7 1009.6 0.0
26/06:00am 23.5 25.9 20.8 85 1.8 SE 9 15 5 8 1009.3 1009.2 0.0
26/05:30am 23.2 25.6 20.9 87 1.5 SSE 9 11 5 6 1009.2 1009.1 0.0
26/05:00am 23.7 26.5 20.8 84 1.9 SSE 7 11 4 6 1009.3 1009.2 0.0
26/04:30am 24.0 26.3 20.7 82 2.2 SSE 9 13 5 7 1009.1 1009.0 0.0
26/04:00am 24.3 26.3 20.8 81 2.3 SE 11 13 6 7 1009.0 1008.9 0.0
26/03:30am 24.6 26.7 20.9 80 2.4 ESE 11 15 6 8 1009.2 1009.1 0.0
26/03:00am 24.4 26.8 20.9 81 2.3 SE 9 13 5 7 1009.3 1009.2 0.0
26/02:30am 23.9 26.5 20.4 81 2.3 SE 7 9 4 5 1009.4 1009.3 0.0
26/02:00am 23.6 25.9 19.9 80 2.4 ESE 7 9 4 5 1009.8 1009.7 0.0
26/01:30am 24.3 26.7 20.0 77 2.8 ESE 7 9 4 5 1010.1 1010.0 0.0
26/01:00am 24.3 26.6 19.8 76 2.9 ESE 7 9 4 5 1010.3 1010.2 0.0
26/12:30am 24.5 26.3 19.6 74 3.2 ESE 9 11 5 6 1010.4 1010.3 0.0
26/12:00am 24.8 26.9 19.4 72 3.5 ESE 7 9 4 5 1010.7 1010.6 0.0
 
Date/Time
EST
Temp
°C
App
Temp
°C
Dew
Point
°C
Rel
Hum
%
Delta-T
°C
Wind Press
QNH
hPa
Press
MSL
hPa
Rain since
9am
mm
Dir  Spd
km/h
Gust
km/h
Spd
kts
Gust
kts
25/11:30pm 25.5 27.2 19.4 69 3.9 E 9 13 5 7 1010.8 1010.7 0.0
25/11:00pm 26.1 27.7 19.2 65 4.4 E 9 13 5 7 1011.1 1011.0 0.0
25/10:30pm 26.6 27.4 19.0 63 4.9 E 13 15 7 8 1011.2 1011.1 0.0
25/10:00pm 27.2 27.1 18.8 60 5.4 E 17 24 9 13 1011.1 1011.0 0.0
25/09:30pm 27.5 27.5 18.2 57 5.9 E 15 17 8 9 1010.8 1010.7 0.0
25/09:00pm 27.9 28.2 18.0 55 6.3 E 13 15 7 8 1010.4 1010.3 0.0
25/08:30pm 28.6 28.7 17.5 51 7.0 E 13 15 7 8 1010.0 1009.9 0.0
25/08:00pm 29.5 29.5 17.3 47 7.7 E 13 15 7 8 1009.5 1009.4 0.0
25/07:30pm 30.3 29.7 16.7 44 8.5 E 15 19 8 10 1008.9 1008.8 0.0
25/07:00pm 31.1 30.0 16.3 41 9.3 ENE 17 24 9 13 1008.3 1008.2 0.0
25/06:30pm 32.3 30.3 14.9 35 10.7 E 19 22 10 12 1007.6 1007.5 0.0
25/06:00pm 33.5 30.8 14.5 31 11.7 E 22 30 12 16 1007.0 1006.9 0.0
25/05:30pm 34.8 32.1 14.7 30 12.5 ESE 22 33 12 18 1006.5 1006.4 0.0
25/05:00pm 35.8 32.9 15.0 29 13.0 E 24 32 13 17 1006.2 1006.1 0.0
25/04:30pm 36.0 33.3 14.6 27 13.3 E 22 33 12 18 1006.1 1006.0 0.0
25/04:00pm 36.0 33.1 15.2 29 13.1 ESE 24 39 13 21 1006.2 1006.1 0.0
25/03:30pm 36.2 32.8 14.8 28 13.3 E 26 37 14 20 1006.4 1006.3 0.0
25/03:00pm 36.2 33.6 15.9 30 12.9 E 24 39 13 21 1006.6 1006.5 0.0
25/02:30pm 36.0 33.1 16.2 30 12.6 ENE 26 37 14 20 1007.0 1006.9 0.0
25/02:00pm 36.8 33.8 15.8 28 13.3 E 26 37 14 20 1007.3 1007.2 0.0
25/01:30pm 35.4 32.7 16.7 33 11.9 ESE 26 39 14 21 1007.9 1007.8 0.0
25/01:00pm 35.6 33.8 17.8 35 11.6 ESE 24 35 13 19 1008.6 1008.5 0.0
25/12:30pm 34.0 34.7 20.4 45 9.1 E 17 30 9 16 1009.4 1009.3 0.0
25/12:00pm 33.6 32.9 21.1 48 8.4 E 26 35 14 19 1009.9 1009.8 0.0
25/11:30am 32.4 31.2 19.3 46 8.6 E 24 35 13 19 1010.5 1010.4 0.0
25/11:00am 32.0 31.0 19.6 47 8.2 E 24 35 13 19 1010.9 1010.8 0.0
25/10:30am 30.9 30.4 20.8 55 6.7 E 24 35 13 19 1011.2 1011.1 0.0
25/10:00am 30.5 30.0 20.7 55 6.5 E 24 33 13 18 1011.3 1011.2 0.0
25/09:30am 29.1 29.8 21.6 64 5.0 ESE 20 28 11 15 1011.6 1011.5 0.0
25/09:00am 28.2 28.2 21.7 68 4.4 ESE 24 35 13 19 1011.5 1011.4 0.0
25/08:30am 27.1 28.1 21.8 73 3.5 ESE 19 26 10 14 1011.3 1011.2 0.0
25/08:00am 26.3 28.8 22.4 79 2.6 SE 13 19 7 10 1011.1 1011.0 0.0
25/07:30am 24.2 27.1 21.1 83 2.0 SE 7 11 4 6 1010.9 1010.8 0.0
25/07:00am 23.1 26.4 21.4 90 1.1 SE 6 7 3 4 1010.5 1010.4 0.0
25/06:30am 22.1 25.1 20.9 93 0.8 SE 6 7 3 4 1010.1 1010.0 0.0
25/06:00am 22.3 25.1 20.9 92 0.9 SE 7 9 4 5 1009.8 1009.7 0.0
25/05:30am 22.4 25.4 20.9 91 1.0 ESE 6 7 3 4 1009.6 1009.5 0.0
25/05:00am 22.6 25.4 20.9 90 1.1 SE 7 9 4 5 1009.4 1009.3 0.0
25/04:30am 22.6 25.5 21.1 91 1.0 ESE 7 7 4 4 1009.2 1009.1 0.0
25/04:00am 22.6 25.5 21.1 91 1.0 SE 7 9 4 5 1009.1 1009.0 0.0
25/03:30am 22.6 25.6 20.9 90 1.1 SSE 6 7 3 4 1009.3 1009.2 0.0
25/03:00am 22.5 25.5 20.8 90 1.1 SSE 6 7 3 4 1009.4 1009.3 0.0
25/02:30am 23.0 25.8 20.9 88 1.4 SE 7 9 4 5 1009.6 1009.5 0.0
25/02:00am 23.6 26.4 20.9 85 1.8 ESE 7 13 4 7 1009.9 1009.8 0.0
25/01:30am 24.1 26.6 21.0 83 2.0 E 9 9 5 5 1010.4 1010.3 0.0
25/01:00am 24.5 26.6 21.0 81 2.3 E 11 11 6 6 1010.6 1010.5 0.0
25/12:30am 25.2 26.9 20.9 77 2.8 ENE 13 17 7 9 1010.8 1010.7 0.0
25/12:00am 25.2 27.3 20.9 77 2.8 ENE 11 15 6 8 1011.2 1011.1 0.0
 
Date/Time
EST
Temp
°C
App
Temp
°C
Dew
Point
°C
Rel
Hum
%
Delta-T
°C
Wind Press
QNH
hPa
Press
MSL
hPa
Rain since
9am
mm
Dir  Spd
km/h
Gust
km/h
Spd
kts
Gust
kts
24/11:30pm 25.4 28.6 21.7 80 2.5 E 7 11 4 6 1011.2 1011.1 0.0
24/11:00pm 25.5 28.7 22.4 83 2.1 NE 9 11 5 6 1011.2 1011.1 0.0
24/10:30pm 25.6 29.5 22.9 85 1.8 NE 7 9 4 5 1011.1 1011.0 0.0
24/10:00pm 25.7 29.6 23.0 85 1.8 ENE 7 9 4 5 1010.7 1010.6 0.0
24/09:30pm 26.0 31.4 23.3 85 1.8 CALM 0 7 0 4 1010.4 1010.3 0.0
24/09:00pm 26.3 30.7 23.4 84 2.0 NE 6 7 3 4 1010.0 1009.9 0.0
24/08:30pm 26.8 32.2 23.3 81 2.4 CALM 0 0 0 0 1009.8 1009.7 0.0
24/08:00pm 26.9 32.1 22.9 79 2.7 CALM 0 0 0 0 1009.4 1009.3 0.0
24/07:30pm 27.1 31.1 22.7 77 3.0 WSW 6 9 3 5 1008.9 1008.8 0.0
24/07:00pm 27.4 31.2 22.8 76 3.1 WSW 7 15 4 8 1008.3 1008.2 0.0
24/06:30pm 27.8 30.9 22.1 71 3.8 WSW 9 17 5 9 1007.7 1007.6 0.0
24/06:00pm 28.8 31.0 21.8 66 4.7 WSW 13 20 7 11 1007.2 1007.1 0.0
24/05:30pm 29.5 31.8 22.0 64 5.1 W 13 20 7 11 1006.9 1006.8 0.0
24/05:00pm 29.9 31.9 22.3 63 5.2 W 15 20 8 11 1006.7 1006.6 0.0
24/04:30pm 30.6 32.9 23.5 66 4.9 W 17 26 9 14 1006.5 1006.4 0.0
24/04:00pm 30.9 33.1 24.3 68 4.6 W 20 28 11 15 1006.4 1006.3 0.0
24/03:30pm 31.3 33.6 23.4 63 5.5 W 17 30 9 16 1006.6 1006.5 0.0
24/03:00pm 34.7 35.5 19.1 39 10.3 E 13 26 7 14 1006.8 1006.7 0.0
24/02:30pm 34.7 35.9 18.3 38 10.7 NE 9 19 5 10 1007.2 1007.1 0.0
24/02:00pm 33.8 33.8 17.1 37 10.7 ESE 13 19 7 10 1007.5 1007.4 0.0
24/01:30pm 34.0 33.2 17.2 36 10.8 E 17 24 9 13 1007.9 1007.8 0.0
24/01:00pm 34.1 34.0 17.8 38 10.5 E 15 22 8 12 1008.5 1008.4 0.0
24/12:30pm 32.8 33.6 17.4 39 9.9 ENE 9 17 5 9 1009.1 1009.0 0.0
24/12:00pm 32.4 33.0 18.6 44 9.0 NE 13 19 7 10 1009.6 1009.5 0.0
24/11:30am 32.1 33.0 20.0 48 8.0 NE 15 20 8 11 1010.1 1010.0 0.0
24/11:00am 31.1 32.0 20.1 52 7.3 E 15 22 8 12 1010.5 1010.4 0.0
24/10:30am 31.0 32.0 21.8 58 6.2 E 19 26 10 14 1010.7 1010.6 0.0
24/10:00am 29.6 31.0 21.8 63 5.3 E 17 24 9 13 1011.1 1011.0 0.0
24/09:30am 29.1 30.3 22.1 66 4.7 ENE 19 24 10 13 1011.1 1011.0 0.0
24/09:00am 28.2 29.9 22.4 71 3.9 E 17 24 9 13 1011.0 1010.9 6.0
24/08:30am 27.1 29.1 22.9 78 2.9 E 17 22 9 12 1010.7 1010.6 6.0
24/08:00am 26.2 29.2 23.3 84 2.0 ENE 13 20 7 11 1010.4 1010.3 6.0
24/07:30am 24.8 28.4 23.0 90 1.2 ENE 9 11 5 6 1010.3 1010.2 6.0
24/07:00am 23.8 27.5 22.6 93 0.8 E 7 11 4 6 1010.0 1009.9 6.0
24/06:30am 23.3 26.5 22.3 94 0.7 E 9 13 5 7 1009.7 1009.6 6.0
24/06:00am 23.4 27.2 22.4 94 0.7 ESE 6 7 3 4 1009.6 1009.5 6.0
24/05:30am 23.7 27.4 22.5 93 0.8 ESE 7 9 4 5 1009.2 1009.1 6.0
24/05:00am 23.7 27.4 22.5 93 0.8 E 7 9 4 5 1009.1 1009.0 6.0
24/04:30am 23.8 27.1 22.6 93 0.8 E 9 11 5 6 1009.0 1008.9 6.0
24/04:00am 23.7 26.9 22.3 92 0.9 ESE 9 13 5 7 1009.0 1008.9 6.0
24/03:30am 23.7 26.5 22.3 92 0.9 E 11 13 6 7 1008.8 1008.7 6.0
24/03:00am 23.6 26.7 22.2 92 0.9 E 9 11 5 6 1008.9 1008.8 6.0
24/02:30am 23.6 27.0 22.0 91 1.1 E 7 9 4 5 1009.1 1009.0 6.0
24/02:00am 23.5 26.7 21.6 89 1.3 ENE 7 9 4 5 1009.5 1009.4 6.0
24/01:30am 23.7 27.0 21.4 87 1.5 ESE 6 6 3 3 1009.9 1009.8 6.0
24/01:00am 23.3 25.8 21.0 87 1.5 ENE 9 11 5 6 1010.1 1010.0 6.0
24/12:30am 23.6 27.4 20.1 81 2.3 CALM 0 0 0 0 1010.3 1010.2 6.0
24/12:00am 23.9 25.2 19.4 76 2.9 SE 11 17 6 9 1010.8 1010.7 6.0
 
Date/Time
EST
Temp
°C
App
Temp
°C
Dew
Point
°C
Rel
Hum
%
Delta-T
°C
Wind Press
QNH
hPa
Press
MSL
hPa
Rain since
9am
mm
Dir  Spd
km/h
Gust
km/h
Spd
kts
Gust
kts
23/11:30pm 24.2 24.5 19.5 75 3.0 ENE 17 20 9 11 1010.9 1010.8 6.0
23/11:00pm 23.5 24.8 22.3 93 0.8 ESE 19 22 10 12 1011.2 1011.1 6.0

Other formats

Comma delimited format used in spreadsheet applications
http://www.bom.gov.au/fwo/IDQ60801/IDQ60801.94170.axf

JavaScript Object Notation format (JSON) in row-major order
http://www.bom.gov.au/fwo/IDQ60801/IDQ60801.94170.json

Data quality

Most of these data are generated automatically and are frequently updated. Quality checks on data are not normally performed. It is possible for incorrect values to appear. Refer to information at About Latest Weather Observations and please check the disclaimer before using these data.